Time;durP1;ratioP1;P1;durP2;ratioP2;P2;SDS_P1;SDS_P2;PMS_P1;PMS_P2;Temp;Humidity;BMP_temperature;BMP_pressure;BME280_temperature;BME280_humidity;BME280_pressure;Samples;Min_cycle;Max_cycle;Signal;HPM_P1;HPM_P2
2023/07/05 00:00:57;;;;;;;4.27;2.17;;;;;;;;;;5047908;28;20312;-69
2023/07/05 00:03:26;;;;;;;2.37;2.17;;;;;;;;;;5037476;28;20301;-69
2023/07/05 00:05:54;;;;;;;2.77;2.53;;;;;;;;;;5037665;28;20242;-69
2023/07/05 00:08:23;;;;;;;3.07;2.50;;;;;;;;;;5037711;28;20207;-69
2023/07/05 00:11:01;;;;;;;4.47;2.33;;;;;;;;;;5036922;28;20268;-71
2023/07/05 00:13:29;;;;;;;5.70;2.20;;;;;;;;;;5048133;28;20288;-70
2023/07/05 00:15:56;;;;;;;3.20;2.10;;;;;;;;;;5057649;28;20596;-69
2023/07/05 00:18:26;;;;;;;3.33;2.40;;;;;;;;;;5057315;28;20316;-71
2023/07/05 00:20:54;;;;;;;2.80;2.50;;;;;;;;;;5057331;28;20230;-71
2023/07/05 00:23:21;;;;;;;2.57;2.33;;;;;;;;;;5059925;28;20300;-71
2023/07/05 00:25:49;;;;;;;2.53;2.00;;;;;;;;;;5061248;28;20209;-71
2023/07/05 00:28:17;;;;;;;3.93;2.37;;;;;;;;;;5061266;28;20300;-71
2023/07/05 00:30:45;;;;;;;2.97;2.10;;;;;;;;;;5061361;28;20240;-71
2023/07/05 00:33:13;;;;;;;3.27;2.67;;;;;;;;;;5061206;28;20704;-71
2023/07/05 00:35:48;;;;;;;3.07;2.77;;;;;;;;;;5061356;28;20217;-71
2023/07/05 00:38:16;;;;;;;2.80;2.50;;;;;;;;;;5061341;28;20230;-71
2023/07/05 00:40:44;;;;;;;2.77;2.37;;;;;;;;;;5055643;28;20316;-71
2023/07/05 00:43:12;;;;;;;5.77;2.53;;;;;;;;;;5041337;28;20222;-71
2023/07/05 00:45:49;;;;;;;3.00;2.27;;;;;;;;;;5040922;28;20218;-71
2023/07/05 00:48:18;;;;;;;3.50;2.73;;;;;;;;;;5040895;28;20206;-71
2023/07/05 00:50:49;;;;;;;2.53;2.33;;;;;;;;;;5041222;28;20230;-70
2023/07/05 00:53:17;;;;;;;3.27;2.67;;;;;;;;;;5040879;28;20224;-71
2023/07/05 00:55:47;;;;;;;3.90;2.33;;;;;;;;;;5040728;28;20215;-71
2023/07/05 00:58:15;;;;;;;3.93;2.33;;;;;;;;;;5040978;28;20226;-70
2023/07/05 01:00:44;;;;;;;3.77;2.50;;;;;;;;;;5048435;28;20233;-71
2023/07/05 01:03:13;;;;;;;4.07;2.27;;;;;;;;;;5040909;28;20217;-71
2023/07/05 01:05:41;;;;;;;4.70;2.60;;;;;;;;;;5040957;28;20206;-71
2023/07/05 01:08:11;;;;;;;3.53;2.50;;;;;;;;;;5040614;28;20212;-71
2023/07/05 01:10:39;;;;;;;3.60;3.07;;;;;;;;;;5040313;28;20255;-71
2023/07/05 01:13:10;;;;;;;4.43;2.67;;;;;;;;;;5056589;28;20214;-70
2023/07/05 01:15:42;;;;;;;3.13;2.20;;;;;;;;;;5040584;28;20227;-70
2023/07/05 01:18:13;;;;;;;3.03;2.40;;;;;;;;;;5040581;28;20208;-70
2023/07/05 01:20:43;;;;;;;3.07;2.77;;;;;;;;;;5040583;28;20320;-71
2023/07/05 01:23:19;;;;;;;2.30;2.10;;;;;;;;;;5040419;28;20212;-70
2023/07/05 01:26:05;;;;;;;2.70;2.40;;;;;;;;;;5040391;28;20203;-70
2023/07/05 01:28:43;;;;;;;3.60;2.57;;;;;;;;;;5040525;28;20236;-70
2023/07/05 01:31:26;;;;;;;3.80;2.17;;;;;;;;;;5040298;28;20233;-70
2023/07/05 01:33:57;;;;;;;4.23;2.30;;;;;;;;;;5030872;28;20238;-70
2023/07/05 01:36:25;;;;;;;3.03;2.37;;;;;;;;;;5047077;28;20218;-70
2023/07/05 01:38:53;;;;;;;4.47;2.40;;;;;;;;;;5059810;28;20236;-70
2023/07/05 01:41:22;;;;;;;3.70;2.60;;;;;;;;;;5052633;28;20718;-70
2023/07/05 01:43:50;;;;;;;2.83;2.27;;;;;;;;;;5040135;28;20213;-71
2023/07/05 01:46:22;;;;;;;3.77;2.63;;;;;;;;;;5040180;28;20275;-71
2023/07/05 01:49:01;;;;;;;3.73;2.27;;;;;;;;;;5040033;28;20214;-71
2023/07/05 01:51:32;;;;;;;2.60;2.40;;;;;;;;;;5039701;28;20720;-71
2023/07/05 01:54:02;;;;;;;3.63;2.77;;;;;;;;;;5039669;28;20269;-71
2023/07/05 01:56:31;;;;;;;4.73;2.83;;;;;;;;;;5039916;28;20248;-69
2023/07/05 01:59:01;;;;;;;5.03;2.73;;;;;;;;;;5042630;28;20243;-70
2023/07/05 02:01:29;;;;;;;3.30;2.50;;;;;;;;;;5046210;28;20232;-69
2023/07/05 02:03:59;;;;;;;3.97;2.73;;;;;;;;;;5046895;28;20655;-69
2023/07/05 02:06:27;;;;;;;3.70;2.63;;;;;;;;;;5059335;28;20232;-70
2023/07/05 02:08:55;;;;;;;2.80;2.60;;;;;;;;;;5059766;28;20658;-69
2023/07/05 02:11:23;;;;;;;3.33;2.37;;;;;;;;;;5059097;28;20234;-69
2023/07/05 02:13:51;;;;;;;4.40;2.90;;;;;;;;;;5053314;28;20203;-71
2023/07/05 02:16:19;;;;;;;4.23;2.60;;;;;;;;;;5059639;28;20211;-70
2023/07/05 02:18:46;;;;;;;3.73;2.73;;;;;;;;;;5058875;28;20239;-71
2023/07/05 02:21:16;;;;;;;3.47;2.37;;;;;;;;;;5046682;28;20719;-70
2023/07/05 02:23:43;;;;;;;4.00;3.03;;;;;;;;;;5039475;28;20290;-70
2023/07/05 02:26:11;;;;;;;3.60;3.03;;;;;;;;;;5039410;28;20215;-69
2023/07/05 02:28:39;;;;;;;4.37;2.97;;;;;;;;;;5038953;28;20235;-70
2023/07/05 02:31:11;;;;;;;4.63;3.47;;;;;;;;;;5038950;28;20220;-70
2023/07/05 02:33:40;;;;;;;4.77;3.00;;;;;;;;;;5038936;28;20236;-70
2023/07/05 02:36:09;;;;;;;4.67;2.67;;;;;;;;;;5039072;28;20300;-70
2023/07/05 02:38:38;;;;;;;7.30;2.93;;;;;;;;;;5049143;28;20203;-69
2023/07/05 02:41:06;;;;;;;4.93;3.07;;;;;;;;;;5063172;28;20594;-69
2023/07/05 02:43:34;;;;;;;3.67;3.07;;;;;;;;;;5058722;28;20211;-70
2023/07/05 02:46:01;;;;;;;5.13;3.20;;;;;;;;;;5045995;28;20210;-70
2023/07/05 02:48:29;;;;;;;4.70;2.60;;;;;;;;;;5039005;28;20234;-70
2023/07/05 02:50:57;;;;;;;4.17;3.17;;;;;;;;;;5063993;28;20236;-70
2023/07/05 02:53:25;;;;;;;3.37;3.00;;;;;;;;;;5071166;28;20199;-70
2023/07/05 02:55:55;;;;;;;4.20;3.03;;;;;;;;;;5065454;28;20201;-70
2023/07/05 02:58:24;;;;;;;4.27;3.37;;;;;;;;;;5038819;28;20263;-70
2023/07/05 03:00:52;;;;;;;3.90;3.03;;;;;;;;;;5071945;28;20231;-70
2023/07/05 03:03:21;;;;;;;4.03;2.67;;;;;;;;;;5055439;28;20232;-70
2023/07/05 03:05:54;;;;;;;2.93;2.57;;;;;;;;;;5041416;28;20212;-70
2023/07/05 03:08:25;;;;;;;2.90;2.70;;;;;;;;;;5066831;28;20664;-70
2023/07/05 03:10:55;;;;;;;3.57;2.90;;;;;;;;;;5051051;28;20223;-70
2023/07/05 03:13:22;;;;;;;3.53;3.23;;;;;;;;;;5064611;28;20206;-70
2023/07/05 03:15:50;;;;;;;3.93;2.73;;;;;;;;;;5063990;28;20229;-70
2023/07/05 03:18:19;;;;;;;3.80;3.03;;;;;;;;;;5070540;28;20226;-70
2023/07/05 03:20:47;;;;;;;3.80;3.00;;;;;;;;;;5065258;28;20311;-70
2023/07/05 03:23:14;;;;;;;4.60;2.87;;;;;;;;;;5064484;28;20206;-70
2023/07/05 03:25:43;;;;;;;3.40;3.10;;;;;;;;;;5066434;28;20203;-70
2023/07/05 03:28:12;;;;;;;4.70;3.17;;;;;;;;;;5065355;28;20557;-70
2023/07/05 03:30:39;;;;;;;3.93;2.97;;;;;;;;;;5066241;28;20225;-70
2023/07/05 03:33:07;;;;;;;4.50;2.90;;;;;;;;;;5061893;28;20589;-71
2023/07/05 03:35:35;;;;;;;4.33;3.10;;;;;;;;;;5067735;28;21292;-69
2023/07/05 03:38:03;;;;;;;4.23;2.93;;;;;;;;;;5064462;28;20211;-69
2023/07/05 03:40:31;;;;;;;5.70;2.97;;;;;;;;;;5064507;28;20223;-70
2023/07/05 03:42:58;;;;;;;4.33;2.90;;;;;;;;;;5065360;28;20199;-70
2023/07/05 03:45:28;;;;;;;5.80;3.17;;;;;;;;;;5062403;28;20208;-70
2023/07/05 03:47:55;;;;;;;2.83;2.63;;;;;;;;;;5067550;28;20202;-70
2023/07/05 03:50:23;;;;;;;3.83;2.97;;;;;;;;;;5066488;28;20218;-70
2023/07/05 03:52:54;;;;;;;3.83;3.43;;;;;;;;;;5067647;28;20205;-70
2023/07/05 03:55:22;;;;;;;4.03;3.63;;;;;;;;;;5065882;28;20207;-70
2023/07/05 03:57:50;;;;;;;5.97;3.37;;;;;;;;;;5065284;28;20205;-70
2023/07/05 04:00:19;;;;;;;3.93;3.07;;;;;;;;;;5065442;28;20235;-69
2023/07/05 04:02:49;;;;;;;6.47;2.97;;;;;;;;;;5055230;28;20271;-69
2023/07/05 04:05:16;;;;;;;4.80;3.20;;;;;;;;;;5037556;28;20215;-70
2023/07/05 04:07:44;;;;;;;3.83;3.20;;;;;;;;;;5037547;28;20643;-70
2023/07/05 04:10:12;;;;;;;4.93;3.40;;;;;;;;;;5037098;28;20298;-70
2023/07/05 04:12:40;;;;;;;5.23;3.20;;;;;;;;;;5052152;28;20267;-70
2023/07/05 04:15:08;;;;;;;4.70;3.60;;;;;;;;;;5054882;28;20632;-70
2023/07/05 04:17:36;;;;;;;4.67;3.30;;;;;;;;;;5057346;28;20207;-69
2023/07/05 04:20:06;;;;;;;4.87;3.70;;;;;;;;;;5056935;28;20284;-69
2023/07/05 04:22:35;;;;;;;5.10;3.50;;;;;;;;;;5062677;28;20195;-70
2023/07/05 04:25:03;;;;;;;5.67;3.50;;;;;;;;;;5063943;28;20216;-71
2023/07/05 04:27:31;;;;;;;3.70;3.00;;;;;;;;;;5062288;28;20213;-71
2023/07/05 04:29:59;;;;;;;4.73;3.17;;;;;;;;;;5062810;28;20588;-71
2023/07/05 04:32:27;;;;;;;5.13;3.53;;;;;;;;;;5067555;28;20251;-71
2023/07/05 04:34:55;;;;;;;5.17;3.43;;;;;;;;;;5066702;28;20205;-71
2023/07/05 04:37:25;;;;;;;6.93;3.33;;;;;;;;;;5056148;28;20739;-69
2023/07/05 04:40:04;;;;;;;4.83;3.90;;;;;;;;;;5048939;28;20232;-71
2023/07/05 04:42:32;;;;;;;4.53;3.27;;;;;;;;;;5045059;28;20206;-71
2023/07/05 04:44:59;;;;;;;3.80;3.10;;;;;;;;;;5057317;28;20296;-71
2023/07/05 04:47:27;;;;;;;5.20;3.37;;;;;;;;;;5057253;28;20206;-69
2023/07/05 04:49:55;;;;;;;3.73;3.23;;;;;;;;;;5057233;28;20265;-69
2023/07/05 04:52:24;;;;;;;5.37;3.53;;;;;;;;;;5057173;28;20207;-69
2023/07/05 04:54:53;;;;;;;4.90;3.13;;;;;;;;;;5057090;28;20208;-69
2023/07/05 04:57:21;;;;;;;4.27;3.47;;;;;;;;;;5057063;28;20297;-69
2023/07/05 05:00:04;;;;;;;5.07;3.40;;;;;;;;;;5055033;28;20237;-70
2023/07/05 05:02:35;;;;;;;6.47;3.50;;;;;;;;;;5050558;28;20198;-70
2023/07/05 05:05:03;;;;;;;4.23;3.23;;;;;;;;;;5043127;28;20288;-70
2023/07/05 05:07:32;;;;;;;4.77;3.40;;;;;;;;;;5036633;28;20207;-70
2023/07/05 05:10:00;;;;;;;4.60;3.47;;;;;;;;;;5038091;28;20701;-70
2023/07/05 05:12:28;;;;;;;3.70;2.77;;;;;;;;;;5052932;28;20729;-66
2023/07/05 05:14:56;;;;;;;5.43;3.83;;;;;;;;;;5042666;28;20294;-67
2023/07/05 05:17:25;;;;;;;4.23;3.43;;;;;;;;;;5040465;28;20211;-67
2023/07/05 05:19:53;;;;;;;4.73;3.63;;;;;;;;;;5040483;28;20690;-67
2023/07/05 05:22:22;;;;;;;4.27;3.40;;;;;;;;;;5040037;28;20234;-65
2023/07/05 05:24:51;;;;;;;5.47;3.17;;;;;;;;;;5040519;28;20226;-68
2023/07/05 05:27:18;;;;;;;5.73;3.63;;;;;;;;;;5040188;28;20210;-67
2023/07/05 05:29:46;;;;;;;4.00;2.50;;;;;;;;;;5040395;28;20223;-67
2023/07/05 05:32:14;;;;;;;3.70;2.20;;;;;;;;;;5042806;28;20233;-68
2023/07/05 05:34:42;;;;;;;3.30;2.13;;;;;;;;;;5052707;28;20289;-68
2023/07/05 05:37:09;;;;;;;3.37;2.20;;;;;;;;;;5059959;28;20206;-67
2023/07/05 05:39:37;;;;;;;2.53;1.53;;;;;;;;;;5046085;28;20202;-68
2023/07/05 05:42:07;;;;;;;3.43;1.97;;;;;;;;;;5047430;28;20229;-68
2023/07/05 05:44:34;;;;;;;4.23;1.97;;;;;;;;;;5042684;28;20213;-68
2023/07/05 05:47:02;;;;;;;4.50;1.57;;;;;;;;;;5040082;28;20216;-68
2023/07/05 05:49:30;;;;;;;1.70;1.20;;;;;;;;;;5039722;28;20220;-68
2023/07/05 05:51:58;;;;;;;1.50;1.37;;;;;;;;;;5054690;28;20572;-68
2023/07/05 05:54:26;;;;;;;2.63;1.10;;;;;;;;;;5059487;28;20205;-68
2023/07/05 05:56:54;;;;;;;3.50;1.20;;;;;;;;;;5058906;28;20224;-68
2023/07/05 05:59:23;;;;;;;2.80;1.10;;;;;;;;;;5045865;28;20275;-68
2023/07/05 06:01:51;;;;;;;1.53;1.20;;;;;;;;;;5044428;28;20225;-68
2023/07/05 06:04:18;;;;;;;1.40;1.23;;;;;;;;;;5039386;28;20718;-68
2023/07/05 06:06:46;;;;;;;3.90;1.13;;;;;;;;;;5039105;28;20216;-68
2023/07/05 06:09:14;;;;;;;1.77;1.00;;;;;;;;;;5056671;28;20299;-66
2023/07/05 06:11:42;;;;;;;3.57;0.90;;;;;;;;;;5059002;28;20309;-66
2023/07/05 06:14:10;;;;;;;2.23;1.40;;;;;;;;;;5049940;28;20233;-65
2023/07/05 06:16:39;;;;;;;2.20;1.10;;;;;;;;;;5038922;28;20245;-65
2023/07/05 06:19:07;;;;;;;1.20;0.93;;;;;;;;;;5039450;28;20240;-67
2023/07/05 06:21:35;;;;;;;2.73;1.20;;;;;;;;;;5038421;28;20325;-68
2023/07/05 06:24:03;;;;;;;2.17;1.37;;;;;;;;;;5038730;28;20292;-67
2023/07/05 06:26:30;;;;;;;1.03;1.00;;;;;;;;;;5058720;28;20290;-70
2023/07/05 06:28:58;;;;;;;1.63;0.63;;;;;;;;;;5058805;28;20704;-68
2023/07/05 06:31:33;;;;;;;0.70;0.70;;;;;;;;;;5058957;28;20239;-68
2023/07/05 06:34:02;;;;;;;0.97;0.87;;;;;;;;;;5043068;28;20236;-66
2023/07/05 06:36:30;;;;;;;2.43;1.43;;;;;;;;;;5038729;28;20210;-65
2023/07/05 06:38:58;;;;;;;3.70;1.60;;;;;;;;;;5052049;28;20206;-66
2023/07/05 06:41:25;;;;;;;1.90;1.17;;;;;;;;;;5047573;28;20234;-66
2023/07/05 06:43:53;;;;;;;1.37;1.00;;;;;;;;;;5058785;28;20216;-67
2023/07/05 06:46:21;;;;;;;1.53;0.70;;;;;;;;;;5058505;28;20215;-64
2023/07/05 06:48:49;;;;;;;2.33;1.10;;;;;;;;;;5058505;28;20234;-64
2023/07/05 06:51:18;;;;;;;0.83;0.83;;;;;;;;;;5058245;28;20703;-64
2023/07/05 06:53:46;;;;;;;1.43;0.93;;;;;;;;;;5058030;28;20683;-64
2023/07/05 06:56:16;;;;;;;1.03;0.90;;;;;;;;;;5058524;28;20614;-64
2023/07/05 06:58:44;;;;;;;1.00;0.70;;;;;;;;;;5058058;28;20242;-64
2023/07/05 07:01:12;;;;;;;2.83;0.80;;;;;;;;;;5045821;28;20262;-65
2023/07/05 07:03:40;;;;;;;1.90;0.60;;;;;;;;;;5038454;28;20210;-65
2023/07/05 07:06:08;;;;;;;4.80;0.90;;;;;;;;;;5038086;28;20259;-65
2023/07/05 07:08:38;;;;;;;0.83;0.83;;;;;;;;;;5044754;28;20210;-65
2023/07/05 07:11:07;;;;;;;2.67;0.57;;;;;;;;;;5039039;28;20237;-64
2023/07/05 07:13:35;;;;;;;2.63;0.70;;;;;;;;;;5054556;28;20228;-64
2023/07/05 07:16:07;;;;;;;7.27;0.90;;;;;;;;;;5053745;28;20216;-64
2023/07/05 07:18:36;;;;;;;2.27;1.30;;;;;;;;;;5058381;28;20209;-64
2023/07/05 07:21:05;;;;;;;4.70;0.70;;;;;;;;;;5058201;28;20275;-65
2023/07/05 07:23:33;;;;;;;4.40;1.40;;;;;;;;;;5058273;28;20224;-64
2023/07/05 07:26:04;;;;;;;1.00;1.00;;;;;;;;;;5057757;28;20204;-64
2023/07/05 07:28:32;;;;;;;2.63;1.10;;;;;;;;;;5058038;28;20586;-64
2023/07/05 07:31:08;;;;;;;4.43;1.20;;;;;;;;;;5048616;28;20217;-65
2023/07/05 07:33:36;;;;;;;1.43;1.07;;;;;;;;;;5049265;28;20245;-64
2023/07/05 07:36:08;;;;;;;2.40;1.57;;;;;;;;;;5040892;28;20307;-64
2023/07/05 07:38:35;;;;;;;2.40;1.20;;;;;;;;;;5050827;28;20297;-64
2023/07/05 07:41:05;;;;;;;3.27;1.13;;;;;;;;;;5049100;28;20226;-64
2023/07/05 07:43:32;;;;;;;4.23;1.20;;;;;;;;;;5038083;28;20229;-64
2023/07/05 07:46:00;;;;;;;2.30;1.10;;;;;;;;;;5042647;28;20206;-66
2023/07/05 07:48:28;;;;;;;2.13;1.50;;;;;;;;;;5037730;28;20213;-64
2023/07/05 07:50:56;;;;;;;1.20;1.00;;;;;;;;;;5037641;28;20250;-66
2023/07/05 07:53:24;;;;;;;2.53;1.43;;;;;;;;;;5039879;28;20927;-67
2023/07/05 07:55:51;;;;;;;3.10;1.20;;;;;;;;;;5047351;28;20298;-66
2023/07/05 07:58:20;;;;;;;2.07;1.20;;;;;;;;;;5052082;28;20215;-66
2023/07/05 08:00:48;;;;;;;1.57;1.03;;;;;;;;;;5045932;28;20262;-66
2023/07/05 08:03:16;;;;;;;3.07;1.33;;;;;;;;;;5037479;28;20227;-66
2023/07/05 08:05:44;;;;;;;0.90;0.90;;;;;;;;;;5037626;28;20207;-65
2023/07/05 08:08:12;;;;;;;1.90;1.20;;;;;;;;;;5037440;28;20213;-66
2023/07/05 08:10:40;;;;;;;1.10;1.00;;;;;;;;;;5043992;28;20277;-66
2023/07/05 08:13:08;;;;;;;2.73;1.13;;;;;;;;;;5041707;28;20653;-65
2023/07/05 08:15:37;;;;;;;1.50;1.30;;;;;;;;;;5056478;28;20213;-68
2023/07/05 08:18:04;;;;;;;1.10;1.10;;;;;;;;;;5057329;28;20244;-68
2023/07/05 08:20:33;;;;;;;1.90;1.13;;;;;;;;;;5057058;28;20632;-66
2023/07/05 08:23:01;;;;;;;0.80;0.80;;;;;;;;;;5057110;28;20286;-66
2023/07/05 08:25:29;;;;;;;1.87;1.30;;;;;;;;;;5057136;28;20229;-64
2023/07/05 08:27:57;;;;;;;1.27;1.20;;;;;;;;;;5057245;28;20256;-63
2023/07/05 08:30:26;;;;;;;2.20;1.20;;;;;;;;;;5056896;28;20773;-65
2023/07/05 08:32:55;;;;;;;5.17;2.97;;;;;;;;;;5036993;28;20257;-65
2023/07/05 08:35:22;;;;;;;39.33;28.53;;;;;;;;;;5037475;28;20235;-65
2023/07/05 08:37:50;;;;;;;4.33;3.33;;;;;;;;;;5056867;28;20210;-66
2023/07/05 08:40:18;;;;;;;2.03;1.50;;;;;;;;;;5048603;28;20733;-65
2023/07/05 08:42:51;;;;;;;4.43;1.97;;;;;;;;;;5037252;28;20595;-65
2023/07/05 08:45:23;;;;;;;6.60;3.23;;;;;;;;;;5039709;28;20243;-65
2023/07/05 08:47:52;;;;;;;3.47;1.60;;;;;;;;;;5041093;28;20573;-64
2023/07/05 08:50:25;;;;;;;4.80;1.60;;;;;;;;;;5044446;28;20224;-65
2023/07/05 08:53:02;;;;;;;4.50;2.10;;;;;;;;;;5048555;28;20230;-65
2023/07/05 08:55:36;;;;;;;2.70;1.27;;;;;;;;;;5044030;28;20215;-65
2023/07/05 08:58:05;;;;;;;2.67;1.57;;;;;;;;;;5040875;28;20209;-65
2023/07/05 09:00:39;;;;;;;2.23;1.33;;;;;;;;;;5048682;28;20231;-65
2023/07/05 09:03:10;;;;;;;2.37;1.40;;;;;;;;;;5040936;28;20228;-64
2023/07/05 09:05:42;;;;;;;2.10;1.37;;;;;;;;;;5040887;28;20213;-63
2023/07/05 09:08:25;;;;;;;2.73;1.33;;;;;;;;;;5040792;28;20235;-63
2023/07/05 09:10:54;;;;;;;2.93;1.50;;;;;;;;;;5040545;28;20668;-65
2023/07/05 09:13:26;;;;;;;2.37;1.60;;;;;;;;;;5057954;28;20214;-65
2023/07/05 09:15:57;;;;;;;3.53;1.50;;;;;;;;;;5050228;28;20315;-65
2023/07/05 09:18:31;;;;;;;1.93;1.47;;;;;;;;;;5049656;28;20211;-66
2023/07/05 09:21:06;;;;;;;1.73;1.40;;;;;;;;;;5053249;28;20238;-65
2023/07/05 09:23:37;;;;;;;2.00;1.80;;;;;;;;;;5043175;28;20265;-65
2023/07/05 09:26:11;;;;;;;1.60;1.30;;;;;;;;;;5040135;28;20634;-64
2023/07/05 09:28:42;;;;;;;1.80;1.47;;;;;;;;;;5039988;28;20210;-63
2023/07/05 09:31:12;;;;;;;2.90;1.70;;;;;;;;;;5042812;28;20322;-64
2023/07/05 09:33:42;;;;;;;3.00;1.70;;;;;;;;;;5041878;28;20260;-64
2023/07/05 09:36:14;;;;;;;3.37;1.30;;;;;;;;;;5040386;28;20205;-64
2023/07/05 09:38:44;;;;;;;1.83;1.50;;;;;;;;;;5039862;28;20574;-63
2023/07/05 09:41:14;;;;;;;1.80;1.50;;;;;;;;;;5046190;28;20310;-65
2023/07/05 09:43:41;;;;;;;1.30;1.20;;;;;;;;;;5039977;28;20229;-65
2023/07/05 09:46:14;;;;;;;1.60;1.50;;;;;;;;;;5039937;28;20649;-64
2023/07/05 09:48:43;;;;;;;1.97;1.40;;;;;;;;;;5040154;28;20297;-67
2023/07/05 09:51:12;;;;;;;2.90;1.60;;;;;;;;;;5040000;28;20268;-65
2023/07/05 09:53:42;;;;;;;4.40;1.53;;;;;;;;;;5039900;28;20213;-65
2023/07/05 09:56:11;;;;;;;3.83;1.40;;;;;;;;;;5058461;28;20222;-65
2023/07/05 09:58:40;;;;;;;1.83;1.10;;;;;;;;;;5060487;28;20207;-64
2023/07/05 10:01:12;;;;;;;4.93;1.40;;;;;;;;;;5046459;28;20232;-63
2023/07/05 10:03:45;;;;;;;1.40;1.30;;;;;;;;;;5049389;28;20241;-64
2023/07/05 10:06:18;;;;;;;4.23;1.80;;;;;;;;;;5040041;28;20213;-63
2023/07/05 10:08:46;;;;;;;1.83;1.60;;;;;;;;;;5050160;28;20300;-64
2023/07/05 10:11:22;;;;;;;3.67;1.63;;;;;;;;;;5059238;28;20246;-65
2023/07/05 10:14:03;;;;;;;2.33;1.30;;;;;;;;;;5039396;28;20208;-64
2023/07/05 10:16:45;;;;;;;4.20;1.80;;;;;;;;;;5039168;28;20705;-64
2023/07/05 10:19:29;;;;;;;3.60;1.00;;;;;;;;;;5046640;28;20287;-65
2023/07/05 10:22:06;;;;;;;1.60;1.50;;;;;;;;;;5038886;28;20268;-65
2023/07/05 10:24:42;;;;;;;1.70;1.60;;;;;;;;;;5038957;28;20231;-65
2023/07/05 10:27:19;;;;;;;1.50;1.40;;;;;;;;;;5039313;28;20214;-65
2023/07/05 10:29:48;;;;;;;3.10;1.43;;;;;;;;;;5039070;28;20236;-65
2023/07/05 10:32:18;;;;;;;2.03;1.60;;;;;;;;;;5038846;28;20247;-66
2023/07/05 10:34:49;;;;;;;3.30;1.90;;;;;;;;;;5039066;28;20205;-65
2023/07/05 10:37:27;;;;;;;2.10;1.67;;;;;;;;;;5038989;28;20219;-65
2023/07/05 10:39:55;;;;;;;3.23;2.67;;;;;;;;;;5041686;28;20218;-63
2023/07/05 10:42:22;;;;;;;1.93;1.60;;;;;;;;;;5050267;28;20217;-64
2023/07/05 10:44:50;;;;;;;2.00;1.50;;;;;;;;;;5058674;28;20235;-64
2023/07/05 10:47:18;;;;;;;2.27;2.03;;;;;;;;;;5058398;28;20572;-64
2023/07/05 10:49:47;;;;;;;1.80;1.63;;;;;;;;;;5058626;28;20711;-64
2023/07/05 10:52:17;;;;;;;2.70;1.90;;;;;;;;;;5058404;28;20206;-67
2023/07/05 10:54:48;;;;;;;2.27;1.60;;;;;;;;;;5058232;28;20206;-64
2023/07/05 10:57:19;;;;;;;2.17;1.87;;;;;;;;;;5038388;28;20212;-64
2023/07/05 10:59:47;;;;;;;1.93;1.60;;;;;;;;;;5047714;28;20257;-64
2023/07/05 11:02:21;;;;;;;2.87;1.70;;;;;;;;;;5053739;28;20206;-64
2023/07/05 11:04:51;;;;;;;3.57;1.50;;;;;;;;;;5038454;28;20228;-64
2023/07/05 11:07:21;;;;;;;4.20;1.93;;;;;;;;;;5037581;28;20215;-64
2023/07/05 11:09:50;;;;;;;1.97;1.77;;;;;;;;;;5037746;28;20255;-64
2023/07/05 11:12:21;;;;;;;3.33;1.90;;;;;;;;;;5049457;28;20304;-64
2023/07/05 11:14:50;;;;;;;3.03;1.60;;;;;;;;;;5046573;28;20231;-65
2023/07/05 11:17:24;;;;;;;1.93;1.63;;;;;;;;;;5064079;28;20199;-65
2023/07/05 11:19:52;;;;;;;1.90;1.70;;;;;;;;;;5064860;28;20256;-64
2023/07/05 11:22:40;;;;;;;2.10;1.90;;;;;;;;;;5065869;28;20203;-64
2023/07/05 11:25:12;;;;;;;3.30;1.90;;;;;;;;;;5062314;28;20213;-64
2023/07/05 11:27:49;;;;;;;2.43;1.70;;;;;;;;;;5050958;28;20268;-63
2023/07/05 11:30:36;;;;;;;2.73;1.80;;;;;;;;;;5037130;28;20643;-65
2023/07/05 11:33:16;;;;;;;2.10;1.77;;;;;;;;;;5037859;28;20703;-64
2023/07/05 11:35:46;;;;;;;2.50;1.53;;;;;;;;;;5038065;28;20200;-65
2023/07/05 11:38:29;;;;;;;2.97;1.83;;;;;;;;;;5044874;28;20726;-65
2023/07/05 11:41:01;;;;;;;3.67;1.73;;;;;;;;;;5050638;28;20224;-64
2023/07/05 11:43:40;;;;;;;2.50;1.50;;;;;;;;;;5038151;28;20213;-65
2023/07/05 11:46:27;;;;;;;2.80;1.70;;;;;;;;;;5038167;28;20209;-65
2023/07/05 11:48:55;;;;;;;2.93;1.73;;;;;;;;;;5038022;28;20207;-64
2023/07/05 11:51:27;;;;;;;1.83;1.63;;;;;;;;;;5038010;28;20233;-64
2023/07/05 11:54:06;;;;;;;2.50;1.70;;;;;;;;;;5042889;28;20213;-64
2023/07/05 11:56:36;;;;;;;2.30;2.00;;;;;;;;;;5037928;28;20283;-64
2023/07/05 11:59:06;;;;;;;2.50;1.80;;;;;;;;;;5040814;28;20217;-64
2023/07/05 12:01:37;;;;;;;2.53;1.63;;;;;;;;;;5037534;28;20333;-64
2023/07/05 12:04:06;;;;;;;2.53;1.63;;;;;;;;;;5037394;28;20232;-64
2023/07/05 12:06:38;;;;;;;2.47;1.70;;;;;;;;;;5037409;28;20619;-64
2023/07/05 12:09:10;;;;;;;3.50;1.77;;;;;;;;;;5037447;28;20213;-64
2023/07/05 12:11:40;;;;;;;2.17;1.83;;;;;;;;;;5043597;28;20316;-64
2023/07/05 12:14:11;;;;;;;2.67;1.70;;;;;;;;;;5053116;28;20223;-64
2023/07/05 12:16:39;;;;;;;4.07;1.70;;;;;;;;;;5037861;28;20237;-64
2023/07/05 12:19:08;;;;;;;2.33;1.63;;;;;;;;;;5039786;28;20237;-64
2023/07/05 12:21:36;;;;;;;4.90;1.70;;;;;;;;;;5041781;28;20316;-63
2023/07/05 12:24:05;;;;;;;2.00;1.60;;;;;;;;;;5041147;28;20214;-63
2023/07/05 12:26:34;;;;;;;2.43;1.70;;;;;;;;;;5046269;28;20291;-64
2023/07/05 12:29:14;;;;;;;2.63;1.63;;;;;;;;;;5046540;28;20208;-64
2023/07/05 12:31:43;;;;;;;4.57;2.60;;;;;;;;;;5051032;28;20307;-64
2023/07/05 12:34:18;;;;;;;3.83;2.20;;;;;;;;;;5054315;28;20211;-64
2023/07/05 12:36:46;;;;;;;2.63;1.60;;;;;;;;;;5061378;28;20232;-63
2023/07/05 12:39:15;;;;;;;1.70;1.60;;;;;;;;;;5047898;28;20268;-63
2023/07/05 12:41:43;;;;;;;1.97;1.80;;;;;;;;;;5054135;28;20225;-64
2023/07/05 12:44:14;;;;;;;2.93;1.70;;;;;;;;;;5041241;28;20211;-63
2023/07/05 12:46:42;;;;;;;2.63;1.70;;;;;;;;;;5041298;28;20264;-69
2023/07/05 12:49:20;;;;;;;2.93;1.77;;;;;;;;;;5041216;28;20220;-70
2023/07/05 12:51:49;;;;;;;3.23;1.70;;;;;;;;;;5040818;28;20638;-71
2023/07/05 12:54:17;;;;;;;2.50;1.90;;;;;;;;;;5040718;28;20290;-73
2023/07/05 12:56:45;;;;;;;2.00;1.80;;;;;;;;;;5041284;28;20213;-72
2023/07/05 12:59:24;;;;;;;3.30;1.63;;;;;;;;;;5041465;28;20234;-71
2023/07/05 13:02:04;;;;;;;2.10;1.90;;;;;;;;;;5040961;28;20203;-71
2023/07/05 13:04:32;;;;;;;2.87;1.80;;;;;;;;;;5040726;28;20207;-71
2023/07/05 13:07:02;;;;;;;1.50;1.40;;;;;;;;;;5041067;28;20210;-71
2023/07/05 13:09:32;;;;;;;4.80;1.90;;;;;;;;;;5040878;28;20202;-70
2023/07/05 13:12:00;;;;;;;2.83;1.80;;;;;;;;;;5049846;28;20210;-71
2023/07/05 13:14:30;;;;;;;4.57;3.67;;;;;;;;;;5047527;28;20220;-71
2023/07/05 13:16:58;;;;;;;5.03;1.97;;;;;;;;;;5040803;28;20686;-71
2023/07/05 13:19:39;;;;;;;2.57;2.00;;;;;;;;;;5040371;28;20616;-70
2023/07/05 13:22:17;;;;;;;2.33;1.90;;;;;;;;;;5040584;28;20212;-70
2023/07/05 13:24:47;;;;;;;2.60;1.50;;;;;;;;;;5058233;28;20209;-71
2023/07/05 13:27:15;;;;;;;2.47;1.70;;;;;;;;;;5044804;28;20579;-71
2023/07/05 13:29:45;;;;;;;3.27;1.73;;;;;;;;;;5042599;28;20216;-70
2023/07/05 13:32:26;;;;;;;1.70;1.60;;;;;;;;;;5039858;28;20633;-69
2023/07/05 13:34:54;;;;;;;2.33;1.70;;;;;;;;;;5039991;28;20651;-71
2023/07/05 13:37:28;;;;;;;2.00;1.73;;;;;;;;;;5044075;28;20206;-71
2023/07/05 13:39:57;;;;;;;1.97;1.77;;;;;;;;;;5066367;28;20227;-71
2023/07/05 13:42:26;;;;;;;1.50;1.40;;;;;;;;;;5062675;28;20683;-71
2023/07/05 13:44:56;;;;;;;4.10;1.90;;;;;;;;;;5046156;28;20214;-71
2023/07/05 13:47:23;;;;;;;6.50;1.93;;;;;;;;;;5040021;28;20207;-70
2023/07/05 13:49:52;;;;;;;2.77;1.80;;;;;;;;;;5039935;28;20232;-70
2023/07/05 13:52:21;;;;;;;1.93;1.70;;;;;;;;;;5039663;28;20226;-70
2023/07/05 13:54:49;;;;;;;2.23;1.93;;;;;;;;;;5038773;28;20207;-71
2023/07/05 13:57:18;;;;;;;2.17;1.70;;;;;;;;;;5047515;28;20579;-71
2023/07/05 13:59:46;;;;;;;1.97;1.47;;;;;;;;;;5051627;28;20706;-72
2023/07/05 14:02:26;;;;;;;2.87;1.70;;;;;;;;;;5043173;28;20209;-71
2023/07/05 14:04:54;;;;;;;2.90;1.77;;;;;;;;;;5039584;28;20660;-71
2023/07/05 14:07:22;;;;;;;4.27;1.63;;;;;;;;;;5049271;28;20225;-70
2023/07/05 14:09:51;;;;;;;2.13;1.53;;;;;;;;;;5041660;28;20233;-70
2023/07/05 14:12:20;;;;;;;2.13;1.80;;;;;;;;;;5048501;28;20607;-70
2023/07/05 14:14:47;;;;;;;3.47;1.87;;;;;;;;;;5054153;28;20236;-69
2023/07/05 14:17:16;;;;;;;2.13;1.73;;;;;;;;;;5039579;28;20569;-71
2023/07/05 14:19:45;;;;;;;1.90;1.70;;;;;;;;;;5039258;28;20209;-68
2023/07/05 14:22:15;;;;;;;2.40;1.70;;;;;;;;;;5039293;28;20209;-69
2023/07/05 14:24:43;;;;;;;3.97;1.70;;;;;;;;;;5045686;28;20214;-69
2023/07/05 14:27:16;;;;;;;2.00;1.73;;;;;;;;;;5059259;28;20706;-69
2023/07/05 14:29:44;;;;;;;2.33;1.67;;;;;;;;;;5059487;28;20211;-69
2023/07/05 14:32:12;;;;;;;1.77;1.57;;;;;;;;;;5059111;28;20243;-70
2023/07/05 14:34:40;;;;;;;2.97;1.77;;;;;;;;;;5059254;28;20207;-69
2023/07/05 14:37:09;;;;;;;2.23;1.80;;;;;;;;;;5058749;28;20208;-69
2023/07/05 14:39:37;;;;;;;2.93;2.27;;;;;;;;;;5050271;28;20208;-69
2023/07/05 14:42:06;;;;;;;2.03;1.83;;;;;;;;;;5047400;28;20210;-69
2023/07/05 14:44:33;;;;;;;2.70;2.03;;;;;;;;;;5039064;28;20220;-69
2023/07/05 14:47:02;;;;;;;3.30;1.93;;;;;;;;;;5039075;28;20229;-70
2023/07/05 14:49:30;;;;;;;2.03;1.50;;;;;;;;;;5038925;28;20293;-69
2023/07/05 14:51:58;;;;;;;2.57;1.60;;;;;;;;;;5038866;28;20217;-69
2023/07/05 14:54:28;;;;;;;1.93;1.60;;;;;;;;;;5045218;28;20230;-69
2023/07/05 14:56:56;;;;;;;1.47;1.30;;;;;;;;;;5058498;28;20205;-69
2023/07/05 14:59:23;;;;;;;2.03;1.57;;;;;;;;;;5058726;28;20211;-69